Terminal Aerodrome Forecast
Issued by NWS Northern Indiana

Home | Current Version | Previous Version | Graphics & Text | Print | Product List | Glossary On
Versions: 1 2 3 4 5 6 7 8 9 10 11 12 13 14 15 16 17
000
FTUS43 KIWX 270100 AAA
TAFFWA
TAF AMD
KFWA 270100Z 2701/2724 06014KT P6SM OVC015
     FM270500 06012KT P6SM OVC008
     FM271000 07015KT P6SM BKN015
     FM271600 08012KT P6SM BKN040=

USA.gov is the U.S. government's official web portal to all federal, state and local government web resources and services.